»·PEaware :: AAL250 KPHX-KRNO

AAL250 :: KPHX-KRNO

FLIGHT INFORMATION

Flight Status: Arrived
Operator:
American Airlines
More flights by this operator :: More flights under this callsign
Pilot: Anonymous 13363 (13363)
Aircraft: MCDONNELL-DOUGLAS MD-88
(MD88)
More flights by this aircraft type
Origin: KPHX Phoenix Sky Harbor Intl
United States
Destination: KRNO Reno/Tahoe Intl
United States
More flights between these airports :: More routes between these airports
Route: MAYSA5 SISIE DOVEE BTY KENNO RUSME2
File this flight plan on PilotEdge
Remarks:
Altitude:
(Current/Filed)
34,000ft
Speed:
(Current/Filed)
439kts
Departed: 29-Jan-18 03:21 PM
Arrived: 29-Jan-18 04:56 PM
Distance/Time
Traveled:
522nm/1:35
Distance/Time
To Go:
Arrived

Flight Plot

Page will automatically refresh every two minutes.

Flight plan parsing failed; only flown route is shown


Map Options




Map Legend


Flown Route
Filed Route
Departure Airport
Arrival Airport
Navaid (VOR, NDB)
Fix

Horizontal Profiles

Position Reports

Time Latitude Longitude Heading Altitude Ground
Speed
29-Jan-18 14:54 33.437564 -111.998694 270 1115ft 0kts
29-Jan-18 14:55 33.437564 -111.998694 270 1115ft 0kts
29-Jan-18 14:56 33.437564 -111.998694 270 1115ft 0kts
29-Jan-18 14:57 33.437564 -111.998694 270 1115ft 0kts
29-Jan-18 14:58 33.437564 -111.998694 270 1115ft 0kts
29-Jan-18 14:59 33.437564 -111.998694 270 1115ft 0kts
29-Jan-18 15:00 33.437564 -111.998694 270 1115ft 0kts
29-Jan-18 15:01 33.437564 -111.998694 270 1115ft 0kts
29-Jan-18 15:02 33.437564 -111.998694 270 1115ft 0kts
29-Jan-18 15:03 33.437564 -111.998694 270 1115ft 0kts
29-Jan-18 15:04 33.437564 -111.998694 270 1115ft 0kts
29-Jan-18 15:05 33.437564 -111.998694 270 1115ft 0kts
29-Jan-18 15:06 33.437564 -111.998694 270 1115ft 0kts
29-Jan-18 15:07 33.437564 -111.998694 270 1115ft 0kts
29-Jan-18 15:08 33.437564 -111.998694 270 1115ft 0kts
29-Jan-18 15:09 33.437564 -111.998694 270 1115ft 0kts
29-Jan-18 15:10 33.437564 -111.998694 270 1115ft 0kts
29-Jan-18 15:11 33.437564 -111.998694 270 1115ft 0kts
29-Jan-18 15:12 33.437529 -111.998274 301 1115ft 2kts
29-Jan-18 15:13 33.437160 -111.998048 0 1115ft 0kts
29-Jan-18 15:14 33.437160 -111.998048 0 1115ft 0kts
29-Jan-18 15:15 33.437160 -111.998048 0 1115ft 0kts
29-Jan-18 15:16 33.437187 -111.998047 1 1115ft 0kts
29-Jan-18 15:17 33.438851 -111.998247 320 1115ft 8kts
29-Jan-18 15:18 33.438998 -112.003283 256 1115ft 13kts
29-Jan-18 15:19 33.437357 -112.003825 179 1115ft 4kts
29-Jan-18 15:20 33.434480 -112.003822 181 1115ft 16kts
29-Jan-18 15:21 33.432861 -112.006410 269 1115ft 5kts
29-Jan-18 15:22 33.432864 -112.006901 271 1115ft 0kts
29-Jan-18 15:23 33.432873 -112.009407 269 1115ft 14kts
29-Jan-18 15:24 33.432895 -112.015712 269 1115ft 19kts
29-Jan-18 15:25 33.432881 -112.021893 271 1115ft 18kts
29-Jan-18 15:26 33.431868 -112.026988 180 1115ft 12kts
29-Jan-18 15:27 33.431069 -112.021372 90 1115ft 88kts
29-Jan-18 15:28 33.431797 -111.969450 85 2834ft 212kts
29-Jan-18 15:29 33.436126 -111.886652 84 6265ft 272kts
29-Jan-18 15:30 33.491531 -111.840445 4 9543ft 288kts
29-Jan-18 15:31 33.571921 -111.837663 2 9450ft 295kts
29-Jan-18 15:32 33.653510 -111.837392 358 9500ft 296kts
29-Jan-18 15:33 33.739407 -111.861367 324 11466ft 349kts
29-Jan-18 15:34 33.798612 -111.956380 305 14110ft 368kts
29-Jan-18 15:35 33.858331 -112.056275 307 16645ft 380kts
29-Jan-18 15:36 33.920798 -112.159104 307 18932ft 390kts
29-Jan-18 15:37 33.984973 -112.264489 307 20899ft 396kts
29-Jan-18 15:38 34.055683 -112.364680 323 21116ft 396kts
29-Jan-18 15:39 34.138124 -112.446071 322 21287ft 399kts
29-Jan-18 15:40 34.220740 -112.529633 322 22342ft 407kts
29-Jan-18 15:41 34.307433 -112.617452 322 24190ft 410kts
29-Jan-18 15:42 34.393436 -112.704477 322 25430ft 425kts
29-Jan-18 15:43 34.485777 -112.797806 321 26346ft 446kts
29-Jan-18 15:44 34.581735 -112.895341 315 27511ft 457kts
29-Jan-18 15:45 34.674708 -112.997855 313 29266ft 447kts
29-Jan-18 15:46 34.763567 -113.095583 315 31430ft 420kts
29-Jan-18 15:47 34.847534 -113.187839 319 32979ft 403kts
29-Jan-18 15:48 34.929078 -113.277085 319 33979ft 397kts
29-Jan-18 15:49 34.997690 -113.373744 299 34106ft 398kts
29-Jan-18 15:50 35.036798 -113.500764 294 34102ft 404kts
29-Jan-18 15:51 35.076185 -113.627825 295 34098ft 401kts
29-Jan-18 15:52 35.111418 -113.740638 294 34114ft 402kts
29-Jan-18 15:53 35.145424 -113.849186 294 34112ft 402kts
29-Jan-18 15:54 35.185120 -113.975508 295 34322ft 402kts
29-Jan-18 15:55 35.232570 -114.095579 313 34339ft 392kts
29-Jan-18 15:56 35.299375 -114.201563 308 34320ft 394kts
29-Jan-18 15:57 35.362968 -114.310539 308 34318ft 394kts
29-Jan-18 15:58 35.426335 -114.419663 309 34306ft 396kts
29-Jan-18 15:59 35.489740 -114.528623 308 34233ft 395kts
29-Jan-18 16:00 35.552834 -114.637024 308 34268ft 395kts
29-Jan-18 16:01 35.612166 -114.738775 308 34292ft 400kts
29-Jan-18 16:02 35.666066 -114.831091 308 34290ft 400kts
29-Jan-18 16:03 35.730917 -114.942008 308 34289ft 400kts
29-Jan-18 16:04 35.806357 -115.070826 308 34289ft 400kts
29-Jan-18 16:05 35.856754 -115.156757 308 34340ft 400kts
29-Jan-18 16:06 35.921811 -115.267536 308 34339ft 399kts
29-Jan-18 16:07 35.987124 -115.378708 310 34338ft 405kts
29-Jan-18 16:08 36.051554 -115.487939 308 34309ft 399kts
29-Jan-18 16:09 36.114964 -115.595436 308 34324ft 410kts
29-Jan-18 16:10 36.180655 -115.706626 308 34326ft 419kts
29-Jan-18 16:11 36.248577 -115.821417 308 34321ft 420kts
29-Jan-18 16:12 36.315611 -115.934523 308 34320ft 419kts
29-Jan-18 16:13 36.381683 -116.045836 308 34319ft 419kts
29-Jan-18 16:14 36.450114 -116.160943 308 34318ft 419kts
29-Jan-18 16:15 36.519002 -116.276632 308 34317ft 418kts
29-Jan-18 16:16 36.587975 -116.392282 309 34315ft 418kts
29-Jan-18 16:17 36.657091 -116.507984 309 34314ft 418kts
29-Jan-18 16:18 36.725868 -116.622938 309 34313ft 418kts
29-Jan-18 16:19 36.788995 -116.728282 308 34317ft 418kts
29-Jan-18 16:20 36.868941 -116.828628 320 34319ft 415kts
29-Jan-18 16:21 36.953525 -116.922089 318 34314ft 416kts
29-Jan-18 16:22 37.038818 -117.018180 318 34324ft 415kts
29-Jan-18 16:23 37.121563 -117.111437 318 34403ft 415kts
29-Jan-18 16:24 37.207017 -117.207672 318 34401ft 415kts
29-Jan-18 16:25 37.292676 -117.304054 318 34400ft 415kts
29-Jan-18 16:26 37.380152 -117.398000 320 34398ft 415kts
29-Jan-18 16:27 37.467594 -117.491648 320 34397ft 415kts
29-Jan-18 16:28 37.543916 -117.599238 308 34396ft 416kts
29-Jan-18 16:29 37.609624 -117.707658 306 34397ft 407kts
29-Jan-18 16:30 37.678510 -117.821259 304 34394ft 413kts
29-Jan-18 16:31 37.747078 -117.934130 304 34319ft 413kts
29-Jan-18 16:32 37.816678 -118.048465 304 34317ft 413kts
29-Jan-18 16:33 37.883277 -118.157684 304 34311ft 395kts
29-Jan-18 16:34 37.944201 -118.257487 304 34383ft 393kts
29-Jan-18 16:35 38.010767 -118.366363 304 34421ft 394kts
29-Jan-18 16:36 38.077959 -118.476102 304 34427ft 398kts
29-Jan-18 16:37 38.142129 -118.580723 304 34420ft 394kts
29-Jan-18 16:38 38.206210 -118.685088 304 34430ft 394kts
29-Jan-18 16:39 38.272923 -118.793545 304 33094ft 386kts
29-Jan-18 16:40 38.337559 -118.898508 304 31223ft 374kts
29-Jan-18 16:41 38.402242 -119.003410 304 29394ft 384kts
29-Jan-18 16:42 38.469102 -119.111641 304 27472ft 392kts
29-Jan-18 16:43 38.532233 -119.222461 300 25570ft 383kts
29-Jan-18 16:44 38.589938 -119.335083 300 23497ft 375kts
29-Jan-18 16:45 38.646163 -119.444527 300 21490ft 365kts
29-Jan-18 16:46 38.701353 -119.551755 300 19539ft 359kts
29-Jan-18 16:47 38.752922 -119.651817 299 17732ft 351kts
29-Jan-18 16:48 38.799821 -119.741487 301 16695ft 315kts
29-Jan-18 16:49 38.880824 -119.774281 0 15903ft 339kts
29-Jan-18 16:50 38.971173 -119.765673 351 14860ft 314kts
29-Jan-18 16:51 39.054866 -119.756736 13 13821ft 304kts
29-Jan-18 16:52 39.130885 -119.730983 3 13354ft 270kts
29-Jan-18 16:53 39.204342 -119.720613 3 12410ft 263kts
29-Jan-18 16:54 39.276749 -119.714019 3 11281ft 262kts
29-Jan-18 16:55 39.348943 -119.708390 2 9932ft 259kts
29-Jan-18 16:56 39.420540 -119.707030 359 8600ft 249kts
29-Jan-18 16:57 39.488568 -119.705683 0 7678ft 240kts
29-Jan-18 16:58 39.550397 -119.709500 347 7060ft 214kts
29-Jan-18 16:59 39.575948 -119.756650 246 6443ft 163kts
29-Jan-18 17:00 39.537260 -119.769299 177 4979ft 152kts
29-Jan-18 17:01 39.498374 -119.769248 180 4406ft 107kts
29-Jan-18 17:02 39.492648 -119.770442 257 4408ft 0kts
29-Jan-18 17:03 39.494811 -119.770684 359 4407ft 16kts
29-Jan-18 17:04 39.498927 -119.770653 359 4407ft 10kts

Navigation Log

Ident Type
Flight plan parsing failed, navigation log unavailable